sensor_id;sensor_type;location;lat;lon;timestamp;P1;durP1;ratioP1;P2;durP2;ratioP2
4268;SDS011;2148;48.554;7.834;2023-08-31T00:02:22;4.63;;;3.30;;
4268;SDS011;2148;48.554;7.834;2023-08-31T00:04:47;3.80;;;3.50;;
4268;SDS011;2148;48.554;7.834;2023-08-31T00:07:16;3.73;;;3.43;;
4268;SDS011;2148;48.554;7.834;2023-08-31T00:09:41;3.63;;;3.30;;
4268;SDS011;2148;48.554;7.834;2023-08-31T00:12:07;3.67;;;3.37;;
4268;SDS011;2148;48.554;7.834;2023-08-31T00:14:32;3.90;;;3.60;;
4268;SDS011;2148;48.554;7.834;2023-08-31T00:16:57;3.70;;;3.40;;
4268;SDS011;2148;48.554;7.834;2023-08-31T00:19:23;3.60;;;3.40;;
4268;SDS011;2148;48.554;7.834;2023-08-31T00:21:48;4.20;;;3.47;;
4268;SDS011;2148;48.554;7.834;2023-08-31T00:24:13;3.70;;;3.50;;
4268;SDS011;2148;48.554;7.834;2023-08-31T00:26:39;3.80;;;3.50;;
4268;SDS011;2148;48.554;7.834;2023-08-31T00:29:05;4.07;;;3.40;;
4268;SDS011;2148;48.554;7.834;2023-08-31T00:31:31;3.37;;;3.17;;
4268;SDS011;2148;48.554;7.834;2023-08-31T00:33:56;3.97;;;3.63;;
4268;SDS011;2148;48.554;7.834;2023-08-31T00:36:21;3.67;;;3.37;;
4268;SDS011;2148;48.554;7.834;2023-08-31T00:38:48;4.20;;;3.80;;
4268;SDS011;2148;48.554;7.834;2023-08-31T00:41:13;3.80;;;3.50;;
4268;SDS011;2148;48.554;7.834;2023-08-31T00:43:38;3.67;;;3.37;;
4268;SDS011;2148;48.554;7.834;2023-08-31T00:46:03;3.90;;;3.50;;
4268;SDS011;2148;48.554;7.834;2023-08-31T00:48:29;3.83;;;3.53;;
4268;SDS011;2148;48.554;7.834;2023-08-31T00:50:54;4.83;;;3.40;;
4268;SDS011;2148;48.554;7.834;2023-08-31T00:53:19;3.93;;;3.63;;
4268;SDS011;2148;48.554;7.834;2023-08-31T00:55:45;4.20;;;3.50;;
4268;SDS011;2148;48.554;7.834;2023-08-31T00:58:10;3.83;;;3.53;;
4268;SDS011;2148;48.554;7.834;2023-08-31T01:03:18;4.43;;;3.40;;
4268;SDS011;2148;48.554;7.834;2023-08-31T01:11:52;4.13;;;3.83;;
4268;SDS011;2148;48.554;7.834;2023-08-31T01:14:23;4.10;;;3.70;;
4268;SDS011;2148;48.554;7.834;2023-08-31T01:16:50;4.00;;;3.70;;
4268;SDS011;2148;48.554;7.834;2023-08-31T01:19:23;4.33;;;3.93;;
4268;SDS011;2148;48.554;7.834;2023-08-31T01:21:59;3.87;;;3.57;;
4268;SDS011;2148;48.554;7.834;2023-08-31T01:24:26;4.10;;;3.80;;
4268;SDS011;2148;48.554;7.834;2023-08-31T01:26:51;4.00;;;3.70;;
4268;SDS011;2148;48.554;7.834;2023-08-31T01:29:17;3.67;;;3.33;;
4268;SDS011;2148;48.554;7.834;2023-08-31T01:31:43;3.67;;;3.40;;
4268;SDS011;2148;48.554;7.834;2023-08-31T01:34:10;3.63;;;3.20;;
4268;SDS011;2148;48.554;7.834;2023-08-31T01:36:36;4.10;;;3.70;;
4268;SDS011;2148;48.554;7.834;2023-08-31T01:39:06;4.43;;;3.60;;
4268;SDS011;2148;48.554;7.834;2023-08-31T01:41:38;6.73;;;3.97;;
4268;SDS011;2148;48.554;7.834;2023-08-31T01:44:05;3.70;;;3.40;;
4268;SDS011;2148;48.554;7.834;2023-08-31T01:46:31;3.60;;;3.40;;
4268;SDS011;2148;48.554;7.834;2023-08-31T01:48:57;4.33;;;3.70;;
4268;SDS011;2148;48.554;7.834;2023-08-31T01:51:22;3.73;;;3.43;;
4268;SDS011;2148;48.554;7.834;2023-08-31T01:53:47;4.20;;;3.80;;
4268;SDS011;2148;48.554;7.834;2023-08-31T01:56:13;3.87;;;3.47;;
4268;SDS011;2148;48.554;7.834;2023-08-31T01:58:38;3.83;;;3.53;;
4268;SDS011;2148;48.554;7.834;2023-08-31T02:01:04;5.17;;;3.67;;
4268;SDS011;2148;48.554;7.834;2023-08-31T02:03:29;4.00;;;3.33;;
4268;SDS011;2148;48.554;7.834;2023-08-31T02:05:54;5.83;;;3.90;;
4268;SDS011;2148;48.554;7.834;2023-08-31T02:08:19;3.93;;;3.63;;
4268;SDS011;2148;48.554;7.834;2023-08-31T02:10:48;4.50;;;3.60;;
4268;SDS011;2148;48.554;7.834;2023-08-31T02:13:14;4.60;;;4.17;;
4268;SDS011;2148;48.554;7.834;2023-08-31T02:15:39;4.97;;;3.77;;
4268;SDS011;2148;48.554;7.834;2023-08-31T02:18:05;3.80;;;3.40;;
4268;SDS011;2148;48.554;7.834;2023-08-31T02:20:30;4.93;;;3.70;;
4268;SDS011;2148;48.554;7.834;2023-08-31T02:22:55;4.00;;;3.67;;
4268;SDS011;2148;48.554;7.834;2023-08-31T02:25:21;4.23;;;3.83;;
4268;SDS011;2148;48.554;7.834;2023-08-31T02:27:46;4.20;;;3.90;;
4268;SDS011;2148;48.554;7.834;2023-08-31T02:30:11;3.93;;;3.63;;
4268;SDS011;2148;48.554;7.834;2023-08-31T02:32:37;3.70;;;3.50;;
4268;SDS011;2148;48.554;7.834;2023-08-31T02:35:02;3.90;;;3.50;;
4268;SDS011;2148;48.554;7.834;2023-08-31T02:37:27;4.07;;;3.67;;
4268;SDS011;2148;48.554;7.834;2023-08-31T02:39:53;3.53;;;3.33;;
4268;SDS011;2148;48.554;7.834;2023-08-31T02:42:18;3.97;;;3.67;;
4268;SDS011;2148;48.554;7.834;2023-08-31T02:44:43;5.00;;;3.70;;
4268;SDS011;2148;48.554;7.834;2023-08-31T02:47:08;5.40;;;3.60;;
4268;SDS011;2148;48.554;7.834;2023-08-31T02:49:34;4.70;;;3.57;;
4268;SDS011;2148;48.554;7.834;2023-08-31T02:51:59;3.77;;;3.40;;
4268;SDS011;2148;48.554;7.834;2023-08-31T02:54:24;4.30;;;3.90;;
4268;SDS011;2148;48.554;7.834;2023-08-31T02:56:49;4.20;;;3.80;;
4268;SDS011;2148;48.554;7.834;2023-08-31T02:59:15;4.40;;;4.00;;
4268;SDS011;2148;48.554;7.834;2023-08-31T03:01:42;4.53;;;3.63;;
4268;SDS011;2148;48.554;7.834;2023-08-31T03:04:11;4.30;;;3.97;;
4268;SDS011;2148;48.554;7.834;2023-08-31T03:06:36;4.70;;;4.30;;
4268;SDS011;2148;48.554;7.834;2023-08-31T03:09:01;4.80;;;4.23;;
4268;SDS011;2148;48.554;7.834;2023-08-31T03:11:27;4.80;;;4.07;;
4268;SDS011;2148;48.554;7.834;2023-08-31T03:13:52;4.47;;;3.97;;
4268;SDS011;2148;48.554;7.834;2023-08-31T03:16:17;4.20;;;3.80;;
4268;SDS011;2148;48.554;7.834;2023-08-31T03:18:42;5.40;;;3.87;;
4268;SDS011;2148;48.554;7.834;2023-08-31T03:21:08;4.30;;;4.00;;
4268;SDS011;2148;48.554;7.834;2023-08-31T03:23:34;4.00;;;3.70;;
4268;SDS011;2148;48.554;7.834;2023-08-31T03:25:59;5.17;;;4.00;;
4268;SDS011;2148;48.554;7.834;2023-08-31T03:28:24;5.00;;;4.10;;
4268;SDS011;2148;48.554;7.834;2023-08-31T03:30:56;3.90;;;3.60;;
4268;SDS011;2148;48.554;7.834;2023-08-31T03:33:22;6.80;;;4.03;;
4268;SDS011;2148;48.554;7.834;2023-08-31T03:35:47;4.53;;;4.07;;
4268;SDS011;2148;48.554;7.834;2023-08-31T03:38:12;4.23;;;3.93;;
4268;SDS011;2148;48.554;7.834;2023-08-31T03:40:38;5.73;;;3.83;;
4268;SDS011;2148;48.554;7.834;2023-08-31T03:43:03;4.40;;;3.90;;
4268;SDS011;2148;48.554;7.834;2023-08-31T03:45:28;4.23;;;3.90;;
4268;SDS011;2148;48.554;7.834;2023-08-31T03:47:54;5.00;;;3.87;;
4268;SDS011;2148;48.554;7.834;2023-08-31T03:50:19;5.10;;;4.40;;
4268;SDS011;2148;48.554;7.834;2023-08-31T03:52:44;4.47;;;4.10;;
4268;SDS011;2148;48.554;7.834;2023-08-31T03:55:10;4.37;;;3.97;;
4268;SDS011;2148;48.554;7.834;2023-08-31T03:57:35;4.27;;;3.80;;
4268;SDS011;2148;48.554;7.834;2023-08-31T04:00:00;5.37;;;4.07;;
4268;SDS011;2148;48.554;7.834;2023-08-31T04:02:25;4.27;;;3.87;;
4268;SDS011;2148;48.554;7.834;2023-08-31T04:04:51;6.10;;;4.20;;
4268;SDS011;2148;48.554;7.834;2023-08-31T04:07:16;5.37;;;3.80;;
4268;SDS011;2148;48.554;7.834;2023-08-31T04:09:41;4.50;;;4.10;;
4268;SDS011;2148;48.554;7.834;2023-08-31T04:12:06;5.40;;;4.20;;
4268;SDS011;2148;48.554;7.834;2023-08-31T04:14:32;4.83;;;3.83;;
4268;SDS011;2148;48.554;7.834;2023-08-31T04:16:57;6.07;;;4.50;;
4268;SDS011;2148;48.554;7.834;2023-08-31T04:19:22;4.40;;;4.00;;
4268;SDS011;2148;48.554;7.834;2023-08-31T04:21:48;5.27;;;3.60;;
4268;SDS011;2148;48.554;7.834;2023-08-31T04:24:13;4.63;;;3.93;;
4268;SDS011;2148;48.554;7.834;2023-08-31T04:26:38;5.60;;;4.20;;
4268;SDS011;2148;48.554;7.834;2023-08-31T04:29:04;6.03;;;4.23;;
4268;SDS011;2148;48.554;7.834;2023-08-31T04:31:31;4.60;;;4.20;;
4268;SDS011;2148;48.554;7.834;2023-08-31T04:33:59;4.27;;;3.90;;
4268;SDS011;2148;48.554;7.834;2023-08-31T04:36:24;5.23;;;4.37;;
4268;SDS011;2148;48.554;7.834;2023-08-31T04:38:53;4.07;;;3.77;;
4268;SDS011;2148;48.554;7.834;2023-08-31T04:41:18;4.63;;;4.23;;
4268;SDS011;2148;48.554;7.834;2023-08-31T04:43:43;4.50;;;3.90;;
4268;SDS011;2148;48.554;7.834;2023-08-31T04:46:09;5.17;;;4.23;;
4268;SDS011;2148;48.554;7.834;2023-08-31T04:48:35;4.97;;;4.17;;
4268;SDS011;2148;48.554;7.834;2023-08-31T04:51:01;4.43;;;4.07;;
4268;SDS011;2148;48.554;7.834;2023-08-31T04:53:28;4.00;;;3.70;;
4268;SDS011;2148;48.554;7.834;2023-08-31T04:55:55;4.17;;;3.87;;
4268;SDS011;2148;48.554;7.834;2023-08-31T04:58:20;4.53;;;4.10;;
4268;SDS011;2148;48.554;7.834;2023-08-31T05:00:45;4.17;;;3.87;;
4268;SDS011;2148;48.554;7.834;2023-08-31T05:03:12;6.20;;;4.30;;
4268;SDS011;2148;48.554;7.834;2023-08-31T05:05:37;4.40;;;4.00;;
4268;SDS011;2148;48.554;7.834;2023-08-31T05:08:02;4.77;;;4.30;;
4268;SDS011;2148;48.554;7.834;2023-08-31T05:10:28;4.27;;;3.97;;
4268;SDS011;2148;48.554;7.834;2023-08-31T05:12:53;4.43;;;4.10;;
4268;SDS011;2148;48.554;7.834;2023-08-31T05:15:19;4.87;;;4.07;;
4268;SDS011;2148;48.554;7.834;2023-08-31T05:17:44;4.30;;;4.00;;
4268;SDS011;2148;48.554;7.834;2023-08-31T05:20:09;5.67;;;4.10;;
4268;SDS011;2148;48.554;7.834;2023-08-31T05:22:35;4.10;;;3.80;;
4268;SDS011;2148;48.554;7.834;2023-08-31T05:25:00;4.93;;;3.97;;
4268;SDS011;2148;48.554;7.834;2023-08-31T05:27:26;4.37;;;3.97;;
4268;SDS011;2148;48.554;7.834;2023-08-31T05:29:51;3.87;;;3.57;;
4268;SDS011;2148;48.554;7.834;2023-08-31T05:32:16;4.60;;;4.20;;
4268;SDS011;2148;48.554;7.834;2023-08-31T05:34:42;4.73;;;3.60;;
4268;SDS011;2148;48.554;7.834;2023-08-31T05:37:07;4.87;;;3.63;;
4268;SDS011;2148;48.554;7.834;2023-08-31T05:39:32;4.10;;;3.70;;
4268;SDS011;2148;48.554;7.834;2023-08-31T05:41:57;4.70;;;4.00;;
4268;SDS011;2148;48.554;7.834;2023-08-31T05:44:23;4.40;;;4.00;;
4268;SDS011;2148;48.554;7.834;2023-08-31T05:46:48;5.60;;;4.30;;
4268;SDS011;2148;48.554;7.834;2023-08-31T05:49:13;4.80;;;4.40;;
4268;SDS011;2148;48.554;7.834;2023-08-31T05:51:39;4.17;;;3.80;;
4268;SDS011;2148;48.554;7.834;2023-08-31T05:54:04;5.47;;;4.00;;
4268;SDS011;2148;48.554;7.834;2023-08-31T05:56:29;4.37;;;4.00;;
4268;SDS011;2148;48.554;7.834;2023-08-31T05:58:55;4.30;;;4.00;;
4268;SDS011;2148;48.554;7.834;2023-08-31T06:01:21;4.30;;;3.90;;
4268;SDS011;2148;48.554;7.834;2023-08-31T06:03:47;8.43;;;4.87;;
4268;SDS011;2148;48.554;7.834;2023-08-31T06:06:13;4.63;;;4.23;;
4268;SDS011;2148;48.554;7.834;2023-08-31T06:08:38;5.37;;;4.67;;
4268;SDS011;2148;48.554;7.834;2023-08-31T06:11:03;5.03;;;4.63;;
4268;SDS011;2148;48.554;7.834;2023-08-31T06:13:29;4.40;;;4.00;;
4268;SDS011;2148;48.554;7.834;2023-08-31T06:15:54;5.03;;;4.37;;
4268;SDS011;2148;48.554;7.834;2023-08-31T06:18:21;5.03;;;4.63;;
4268;SDS011;2148;48.554;7.834;2023-08-31T06:20:48;7.27;;;4.63;;
4268;SDS011;2148;48.554;7.834;2023-08-31T06:23:14;5.03;;;4.63;;
4268;SDS011;2148;48.554;7.834;2023-08-31T06:25:39;5.10;;;4.60;;
4268;SDS011;2148;48.554;7.834;2023-08-31T06:28:05;4.57;;;4.27;;
4268;SDS011;2148;48.554;7.834;2023-08-31T06:30:33;4.83;;;4.53;;
4268;SDS011;2148;48.554;7.834;2023-08-31T06:32:59;4.80;;;4.40;;
4268;SDS011;2148;48.554;7.834;2023-08-31T06:35:24;5.50;;;4.37;;
4268;SDS011;2148;48.554;7.834;2023-08-31T06:37:49;4.80;;;4.40;;
4268;SDS011;2148;48.554;7.834;2023-08-31T06:40:15;6.27;;;4.70;;
4268;SDS011;2148;48.554;7.834;2023-08-31T06:42:41;5.10;;;4.70;;
4268;SDS011;2148;48.554;7.834;2023-08-31T06:45:06;6.90;;;4.63;;
4268;SDS011;2148;48.554;7.834;2023-08-31T06:47:33;6.27;;;4.80;;
4268;SDS011;2148;48.554;7.834;2023-08-31T06:49:58;5.17;;;4.67;;
4268;SDS011;2148;48.554;7.834;2023-08-31T06:52:24;5.40;;;4.90;;
4268;SDS011;2148;48.554;7.834;2023-08-31T06:54:50;5.27;;;4.70;;
4268;SDS011;2148;48.554;7.834;2023-08-31T06:57:20;5.37;;;4.80;;
4268;SDS011;2148;48.554;7.834;2023-08-31T06:59:45;6.70;;;4.80;;
4268;SDS011;2148;48.554;7.834;2023-08-31T07:02:10;4.80;;;4.40;;
4268;SDS011;2148;48.554;7.834;2023-08-31T07:04:35;5.30;;;4.80;;
4268;SDS011;2148;48.554;7.834;2023-08-31T07:07:00;4.97;;;4.57;;
4268;SDS011;2148;48.554;7.834;2023-08-31T07:09:26;5.37;;;4.90;;
4268;SDS011;2148;48.554;7.834;2023-08-31T07:11:52;4.83;;;4.43;;
4268;SDS011;2148;48.554;7.834;2023-08-31T07:14:17;5.53;;;4.70;;
4268;SDS011;2148;48.554;7.834;2023-08-31T07:16:42;5.07;;;4.57;;
4268;SDS011;2148;48.554;7.834;2023-08-31T07:19:08;5.40;;;4.90;;
4268;SDS011;2148;48.554;7.834;2023-08-31T07:21:33;5.47;;;4.97;;
4268;SDS011;2148;48.554;7.834;2023-08-31T07:23:58;6.10;;;4.50;;
4268;SDS011;2148;48.554;7.834;2023-08-31T07:26:23;4.90;;;4.50;;
4268;SDS011;2148;48.554;7.834;2023-08-31T07:28:49;4.63;;;4.33;;
4268;SDS011;2148;48.554;7.834;2023-08-31T07:31:14;5.30;;;4.80;;
4268;SDS011;2148;48.554;7.834;2023-08-31T07:33:41;5.87;;;4.93;;
4268;SDS011;2148;48.554;7.834;2023-08-31T07:36:06;5.37;;;4.87;;
4268;SDS011;2148;48.554;7.834;2023-08-31T07:38:31;6.67;;;5.07;;
4268;SDS011;2148;48.554;7.834;2023-08-31T07:40:57;5.33;;;4.83;;
4268;SDS011;2148;48.554;7.834;2023-08-31T07:43:23;4.90;;;4.30;;
4268;SDS011;2148;48.554;7.834;2023-08-31T07:45:48;5.17;;;4.30;;
4268;SDS011;2148;48.554;7.834;2023-08-31T07:48:14;5.67;;;4.93;;
4268;SDS011;2148;48.554;7.834;2023-08-31T07:50:42;4.67;;;4.20;;
4268;SDS011;2148;48.554;7.834;2023-08-31T07:53:08;6.53;;;4.70;;
4268;SDS011;2148;48.554;7.834;2023-08-31T07:55:33;5.43;;;4.27;;
4268;SDS011;2148;48.554;7.834;2023-08-31T07:58:00;5.63;;;4.07;;
4268;SDS011;2148;48.554;7.834;2023-08-31T08:00:26;7.10;;;4.20;;
4268;SDS011;2148;48.554;7.834;2023-08-31T08:02:51;4.93;;;4.43;;
4268;SDS011;2148;48.554;7.834;2023-08-31T08:05:16;5.10;;;4.00;;
4268;SDS011;2148;48.554;7.834;2023-08-31T08:07:42;5.77;;;4.30;;
4268;SDS011;2148;48.554;7.834;2023-08-31T08:10:07;5.20;;;4.00;;
4268;SDS011;2148;48.554;7.834;2023-08-31T08:12:40;4.10;;;3.80;;
4268;SDS011;2148;48.554;7.834;2023-08-31T08:15:08;4.20;;;3.80;;
4268;SDS011;2148;48.554;7.834;2023-08-31T08:17:33;6.60;;;4.30;;
4268;SDS011;2148;48.554;7.834;2023-08-31T08:19:59;3.73;;;3.47;;
4268;SDS011;2148;48.554;7.834;2023-08-31T08:22:24;4.97;;;3.80;;
4268;SDS011;2148;48.554;7.834;2023-08-31T08:24:50;5.03;;;3.83;;
4268;SDS011;2148;48.554;7.834;2023-08-31T08:27:15;4.80;;;3.80;;
4268;SDS011;2148;48.554;7.834;2023-08-31T08:29:42;4.97;;;3.87;;
4268;SDS011;2148;48.554;7.834;2023-08-31T08:32:07;3.63;;;3.33;;
4268;SDS011;2148;48.554;7.834;2023-08-31T08:34:33;4.20;;;3.80;;
4268;SDS011;2148;48.554;7.834;2023-08-31T08:36:59;4.77;;;3.73;;
4268;SDS011;2148;48.554;7.834;2023-08-31T08:39:24;6.50;;;3.90;;
4268;SDS011;2148;48.554;7.834;2023-08-31T08:41:49;4.63;;;3.67;;
4268;SDS011;2148;48.554;7.834;2023-08-31T08:44:15;4.30;;;3.90;;
4268;SDS011;2148;48.554;7.834;2023-08-31T08:46:41;4.83;;;3.67;;
4268;SDS011;2148;48.554;7.834;2023-08-31T08:49:07;3.40;;;3.10;;
4268;SDS011;2148;48.554;7.834;2023-08-31T08:51:33;3.97;;;3.53;;
4268;SDS011;2148;48.554;7.834;2023-08-31T08:54:01;5.57;;;3.90;;
4268;SDS011;2148;48.554;7.834;2023-08-31T08:56:28;5.10;;;4.07;;
4268;SDS011;2148;48.554;7.834;2023-08-31T08:58:53;4.77;;;4.27;;
4268;SDS011;2148;48.554;7.834;2023-08-31T09:01:19;4.20;;;3.80;;
4268;SDS011;2148;48.554;7.834;2023-08-31T09:03:47;4.20;;;3.67;;
4268;SDS011;2148;48.554;7.834;2023-08-31T09:06:13;4.00;;;3.60;;
4268;SDS011;2148;48.554;7.834;2023-08-31T09:08:38;4.23;;;3.83;;
4268;SDS011;2148;48.554;7.834;2023-08-31T09:11:06;4.10;;;3.40;;
4268;SDS011;2148;48.554;7.834;2023-08-31T09:13:31;5.23;;;3.80;;
4268;SDS011;2148;48.554;7.834;2023-08-31T09:15:58;3.93;;;3.53;;
4268;SDS011;2148;48.554;7.834;2023-08-31T09:18:27;4.70;;;3.63;;
4268;SDS011;2148;48.554;7.834;2023-08-31T09:20:53;4.40;;;3.97;;
4268;SDS011;2148;48.554;7.834;2023-08-31T09:23:19;5.70;;;3.73;;
4268;SDS011;2148;48.554;7.834;2023-08-31T09:25:48;7.63;;;3.53;;
4268;SDS011;2148;48.554;7.834;2023-08-31T09:28:15;5.10;;;3.83;;
4268;SDS011;2148;48.554;7.834;2023-08-31T09:30:41;4.73;;;3.50;;
4268;SDS011;2148;48.554;7.834;2023-08-31T09:33:07;4.07;;;3.63;;
4268;SDS011;2148;48.554;7.834;2023-08-31T09:35:38;4.10;;;3.20;;
4268;SDS011;2148;48.554;7.834;2023-08-31T09:38:06;5.20;;;3.87;;
4268;SDS011;2148;48.554;7.834;2023-08-31T09:40:32;5.00;;;3.63;;
4268;SDS011;2148;48.554;7.834;2023-08-31T09:42:57;5.07;;;4.00;;
4268;SDS011;2148;48.554;7.834;2023-08-31T09:45:29;4.83;;;3.83;;
4268;SDS011;2148;48.554;7.834;2023-08-31T09:47:56;3.77;;;3.47;;
4268;SDS011;2148;48.554;7.834;2023-08-31T09:50:22;4.47;;;3.70;;
4268;SDS011;2148;48.554;7.834;2023-08-31T09:52:48;3.80;;;3.47;;
4268;SDS011;2148;48.554;7.834;2023-08-31T09:55:15;3.60;;;3.30;;
4268;SDS011;2148;48.554;7.834;2023-08-31T09:57:41;5.37;;;3.60;;
4268;SDS011;2148;48.554;7.834;2023-08-31T10:00:07;4.27;;;3.70;;
4268;SDS011;2148;48.554;7.834;2023-08-31T10:02:32;5.10;;;3.40;;
4268;SDS011;2148;48.554;7.834;2023-08-31T10:04:58;4.17;;;3.20;;
4268;SDS011;2148;48.554;7.834;2023-08-31T10:07:24;3.63;;;3.33;;
4268;SDS011;2148;48.554;7.834;2023-08-31T10:09:49;5.97;;;3.33;;
4268;SDS011;2148;48.554;7.834;2023-08-31T10:12:15;4.80;;;3.57;;
4268;SDS011;2148;48.554;7.834;2023-08-31T10:14:41;3.93;;;3.43;;
4268;SDS011;2148;48.554;7.834;2023-08-31T10:17:07;4.17;;;3.80;;
4268;SDS011;2148;48.554;7.834;2023-08-31T10:19:32;4.47;;;3.80;;
4268;SDS011;2148;48.554;7.834;2023-08-31T10:21:58;4.17;;;3.70;;
4268;SDS011;2148;48.554;7.834;2023-08-31T10:27:28;3.70;;;3.40;;
4268;SDS011;2148;48.554;7.834;2023-08-31T10:35:40;4.00;;;3.60;;
4268;SDS011;2148;48.554;7.834;2023-08-31T10:38:16;3.70;;;3.03;;
4268;SDS011;2148;48.554;7.834;2023-08-31T10:46:24;3.73;;;3.30;;
4268;SDS011;2148;48.554;7.834;2023-08-31T10:48:54;3.73;;;3.30;;
4268;SDS011;2148;48.554;7.834;2023-08-31T10:51:23;5.13;;;3.43;;
4268;SDS011;2148;48.554;7.834;2023-08-31T10:53:49;5.33;;;3.63;;
4268;SDS011;2148;48.554;7.834;2023-08-31T10:56:18;4.93;;;3.70;;
4268;SDS011;2148;48.554;7.834;2023-08-31T10:58:54;3.97;;;3.20;;
4268;SDS011;2148;48.554;7.834;2023-08-31T11:04:28;4.27;;;3.50;;
4268;SDS011;2148;48.554;7.834;2023-08-31T11:07:12;5.60;;;3.67;;
4268;SDS011;2148;48.554;7.834;2023-08-31T11:09:42;3.43;;;3.03;;
4268;SDS011;2148;48.554;7.834;2023-08-31T11:12:08;5.80;;;3.23;;
4268;SDS011;2148;48.554;7.834;2023-08-31T11:14:34;5.20;;;3.60;;
4268;SDS011;2148;48.554;7.834;2023-08-31T11:16:59;3.70;;;3.33;;
4268;SDS011;2148;48.554;7.834;2023-08-31T11:19:26;5.87;;;3.23;;
4268;SDS011;2148;48.554;7.834;2023-08-31T11:21:52;4.43;;;3.27;;
4268;SDS011;2148;48.554;7.834;2023-08-31T11:24:17;3.60;;;3.30;;
4268;SDS011;2148;48.554;7.834;2023-08-31T11:26:42;3.90;;;3.17;;
4268;SDS011;2148;48.554;7.834;2023-08-31T11:29:07;6.80;;;3.60;;
4268;SDS011;2148;48.554;7.834;2023-08-31T11:31:37;4.47;;;3.57;;
4268;SDS011;2148;48.554;7.834;2023-08-31T11:34:04;4.40;;;3.97;;
4268;SDS011;2148;48.554;7.834;2023-08-31T11:36:30;5.10;;;3.90;;
4268;SDS011;2148;48.554;7.834;2023-08-31T11:38:56;4.63;;;3.93;;
4268;SDS011;2148;48.554;7.834;2023-08-31T11:41:21;4.40;;;4.00;;
4268;SDS011;2148;48.554;7.834;2023-08-31T11:43:46;4.33;;;3.47;;
4268;SDS011;2148;48.554;7.834;2023-08-31T11:46:12;4.17;;;3.00;;
4268;SDS011;2148;48.554;7.834;2023-08-31T11:48:38;4.40;;;3.10;;
4268;SDS011;2148;48.554;7.834;2023-08-31T11:51:03;6.13;;;3.87;;
4268;SDS011;2148;48.554;7.834;2023-08-31T11:53:28;6.83;;;4.70;;
4268;SDS011;2148;48.554;7.834;2023-08-31T11:55:54;6.43;;;4.13;;
4268;SDS011;2148;48.554;7.834;2023-08-31T11:58:20;4.63;;;3.60;;
4268;SDS011;2148;48.554;7.834;2023-08-31T12:00:45;5.50;;;4.40;;
4268;SDS011;2148;48.554;7.834;2023-08-31T12:03:19;5.80;;;4.30;;
4268;SDS011;2148;48.554;7.834;2023-08-31T12:05:45;6.73;;;3.67;;
4268;SDS011;2148;48.554;7.834;2023-08-31T12:08:11;4.00;;;3.67;;
4268;SDS011;2148;48.554;7.834;2023-08-31T12:10:39;3.83;;;3.40;;
4268;SDS011;2148;48.554;7.834;2023-08-31T12:13:08;4.80;;;3.77;;
4268;SDS011;2148;48.554;7.834;2023-08-31T12:15:34;4.30;;;3.33;;
4268;SDS011;2148;48.554;7.834;2023-08-31T12:18:06;6.23;;;3.73;;
4268;SDS011;2148;48.554;7.834;2023-08-31T12:20:32;6.27;;;3.40;;
4268;SDS011;2148;48.554;7.834;2023-08-31T12:22:57;6.20;;;4.33;;
4268;SDS011;2148;48.554;7.834;2023-08-31T12:25:23;7.53;;;4.97;;
4268;SDS011;2148;48.554;7.834;2023-08-31T12:27:48;4.67;;;3.70;;
4268;SDS011;2148;48.554;7.834;2023-08-31T12:30:14;6.17;;;3.80;;
4268;SDS011;2148;48.554;7.834;2023-08-31T12:32:40;7.10;;;4.20;;
4268;SDS011;2148;48.554;7.834;2023-08-31T12:35:05;3.87;;;3.30;;
4268;SDS011;2148;48.554;7.834;2023-08-31T12:37:31;3.37;;;3.10;;
4268;SDS011;2148;48.554;7.834;2023-08-31T12:39:57;3.93;;;3.60;;
4268;SDS011;2148;48.554;7.834;2023-08-31T12:42:23;5.70;;;3.90;;
4268;SDS011;2148;48.554;7.834;2023-08-31T12:44:48;4.53;;;3.57;;
4268;SDS011;2148;48.554;7.834;2023-08-31T12:47:13;6.87;;;4.17;;
4268;SDS011;2148;48.554;7.834;2023-08-31T12:49:39;4.40;;;3.57;;
4268;SDS011;2148;48.554;7.834;2023-08-31T12:52:04;7.77;;;3.80;;
4268;SDS011;2148;48.554;7.834;2023-08-31T12:54:30;6.03;;;3.80;;
4268;SDS011;2148;48.554;7.834;2023-08-31T12:56:55;5.30;;;4.00;;
4268;SDS011;2148;48.554;7.834;2023-08-31T12:59:20;3.60;;;3.17;;
4268;SDS011;2148;48.554;7.834;2023-08-31T13:01:46;5.63;;;3.70;;
4268;SDS011;2148;48.554;7.834;2023-08-31T13:04:11;6.50;;;4.03;;
4268;SDS011;2148;48.554;7.834;2023-08-31T13:06:36;5.03;;;4.30;;
4268;SDS011;2148;48.554;7.834;2023-08-31T13:09:02;4.10;;;3.60;;
4268;SDS011;2148;48.554;7.834;2023-08-31T13:11:28;7.57;;;3.50;;
4268;SDS011;2148;48.554;7.834;2023-08-31T13:13:53;5.67;;;3.43;;
4268;SDS011;2148;48.554;7.834;2023-08-31T13:16:20;4.77;;;3.90;;
4268;SDS011;2148;48.554;7.834;2023-08-31T13:18:49;6.37;;;3.30;;
4268;SDS011;2148;48.554;7.834;2023-08-31T13:21:14;6.60;;;4.37;;
4268;SDS011;2148;48.554;7.834;2023-08-31T13:23:39;5.13;;;3.50;;
4268;SDS011;2148;48.554;7.834;2023-08-31T13:26:07;6.80;;;3.90;;
4268;SDS011;2148;48.554;7.834;2023-08-31T13:28:33;4.27;;;3.87;;
4268;SDS011;2148;48.554;7.834;2023-08-31T13:30:58;5.97;;;4.00;;
4268;SDS011;2148;48.554;7.834;2023-08-31T13:33:25;4.43;;;3.70;;
4268;SDS011;2148;48.554;7.834;2023-08-31T13:35:50;5.07;;;4.00;;
4268;SDS011;2148;48.554;7.834;2023-08-31T13:38:16;4.80;;;3.87;;
4268;SDS011;2148;48.554;7.834;2023-08-31T13:40:41;4.83;;;4.17;;
4268;SDS011;2148;48.554;7.834;2023-08-31T13:43:07;4.90;;;3.70;;
4268;SDS011;2148;48.554;7.834;2023-08-31T13:45:32;5.20;;;3.77;;
4268;SDS011;2148;48.554;7.834;2023-08-31T13:47:58;5.33;;;4.33;;
4268;SDS011;2148;48.554;7.834;2023-08-31T13:50:25;4.27;;;3.87;;
4268;SDS011;2148;48.554;7.834;2023-08-31T13:52:51;4.60;;;3.77;;
4268;SDS011;2148;48.554;7.834;2023-08-31T13:55:16;5.87;;;3.60;;
4268;SDS011;2148;48.554;7.834;2023-08-31T13:57:42;5.63;;;4.33;;
4268;SDS011;2148;48.554;7.834;2023-08-31T14:00:08;6.67;;;4.10;;
4268;SDS011;2148;48.554;7.834;2023-08-31T14:02:34;5.60;;;4.20;;
4268;SDS011;2148;48.554;7.834;2023-08-31T14:05:01;9.57;;;4.83;;
4268;SDS011;2148;48.554;7.834;2023-08-31T14:07:27;5.93;;;3.77;;
4268;SDS011;2148;48.554;7.834;2023-08-31T14:09:52;7.30;;;4.27;;
4268;SDS011;2148;48.554;7.834;2023-08-31T14:12:18;4.67;;;3.67;;
4268;SDS011;2148;48.554;7.834;2023-08-31T14:14:43;8.03;;;4.60;;
4268;SDS011;2148;48.554;7.834;2023-08-31T14:17:11;4.60;;;3.40;;
4268;SDS011;2148;48.554;7.834;2023-08-31T14:19:36;7.93;;;4.20;;
4268;SDS011;2148;48.554;7.834;2023-08-31T14:22:01;7.83;;;3.90;;
4268;SDS011;2148;48.554;7.834;2023-08-31T14:24:28;7.30;;;4.27;;
4268;SDS011;2148;48.554;7.834;2023-08-31T14:26:54;4.47;;;3.50;;
4268;SDS011;2148;48.554;7.834;2023-08-31T14:29:19;6.03;;;4.03;;
4268;SDS011;2148;48.554;7.834;2023-08-31T14:31:44;5.53;;;4.47;;
4268;SDS011;2148;48.554;7.834;2023-08-31T14:34:10;4.77;;;3.90;;
4268;SDS011;2148;48.554;7.834;2023-08-31T14:36:35;7.27;;;3.93;;
4268;SDS011;2148;48.554;7.834;2023-08-31T14:39:00;9.43;;;4.37;;
4268;SDS011;2148;48.554;7.834;2023-08-31T14:41:25;4.93;;;3.77;;
4268;SDS011;2148;48.554;7.834;2023-08-31T14:43:51;4.60;;;3.93;;
4268;SDS011;2148;48.554;7.834;2023-08-31T14:46:16;5.23;;;4.03;;
4268;SDS011;2148;48.554;7.834;2023-08-31T14:48:41;6.80;;;3.90;;
4268;SDS011;2148;48.554;7.834;2023-08-31T14:51:06;6.07;;;4.17;;
4268;SDS011;2148;48.554;7.834;2023-08-31T14:53:33;4.93;;;3.60;;
4268;SDS011;2148;48.554;7.834;2023-08-31T14:55:59;5.33;;;3.60;;
4268;SDS011;2148;48.554;7.834;2023-08-31T14:58:24;7.47;;;4.00;;
4268;SDS011;2148;48.554;7.834;2023-08-31T15:00:49;7.07;;;4.10;;
4268;SDS011;2148;48.554;7.834;2023-08-31T15:03:15;8.57;;;4.20;;
4268;SDS011;2148;48.554;7.834;2023-08-31T15:05:40;4.20;;;3.83;;
4268;SDS011;2148;48.554;7.834;2023-08-31T15:08:08;8.83;;;3.70;;
4268;SDS011;2148;48.554;7.834;2023-08-31T15:10:35;6.57;;;4.13;;
4268;SDS011;2148;48.554;7.834;2023-08-31T15:13:02;5.53;;;3.60;;
4268;SDS011;2148;48.554;7.834;2023-08-31T15:15:28;7.60;;;4.00;;
4268;SDS011;2148;48.554;7.834;2023-08-31T15:17:55;5.83;;;4.17;;
4268;SDS011;2148;48.554;7.834;2023-08-31T15:20:20;6.23;;;3.40;;
4268;SDS011;2148;48.554;7.834;2023-08-31T15:22:46;4.37;;;3.80;;
4268;SDS011;2148;48.554;7.834;2023-08-31T15:25:11;5.03;;;4.00;;
4268;SDS011;2148;48.554;7.834;2023-08-31T15:27:36;6.23;;;3.50;;
4268;SDS011;2148;48.554;7.834;2023-08-31T15:30:03;7.80;;;4.40;;
4268;SDS011;2148;48.554;7.834;2023-08-31T15:32:29;7.60;;;3.80;;
4268;SDS011;2148;48.554;7.834;2023-08-31T15:34:56;5.00;;;3.80;;